Terminal Aerodrome Forecast
Issued by NWS

Home | Current Version | Previous Version | Text Only | Print | Product List | Glossary On
Versions: 1 2 3 4 5 6 7 8 9 10 11 12 13 14 15 16 17 18 19 20 21 22 23 24 25 26 27 28 29 30 31 32
711
FTUS43 KDVN 171444 AAA
TAFCID
TAF AMD
KCID 171444Z 1715/1812 15016G21KT 5SM BR OVC014
     FM171800 15014KT 5SM -DZ BR OVC007
     FM172200 14010KT 2SM -RA OVC003
     FM180300 18006KT 1SM -RA BR OVC003
     FM180700 34010KT 2SM -RA BR OVC003=

USA.gov is the U.S. government's official web portal to all federal, state and local government web resources and services.